Wetterstation Vordersexau
Wetterdaten: Woche 17.03.14 - 23.03.14 (KW12)
Datum Zeit Temp. A. Feuchte A. Luftdruck Regen Wind Richtung Taupunkt Windchill Windben
17.03.2014 00:00 4,9 C 84 % 994,7 hPa 0,0 l/m 0,0 km/h O-NO 2,4 C 4,9 C 0,0 km/h
17.03.2014 01:00 4,3 C 85 % 994,9 hPa 0,0 l/m 0,0 km/h O-SO 2,0 C 4,3 C 0,0 km/h
17.03.2014 02:00 3,9 C 85 % 994,4 hPa 0,0 l/m 0,0 km/h O-SO 1,6 C 3,9 C 0,0 km/h
17.03.2014 03:00 3,3 C 85 % 993,9 hPa 0,0 l/m 0,0 km/h NO 1,0 C 3,3 C 0,0 km/h
17.03.2014 04:00 2,5 C 85 % 993,9 hPa 0,0 l/m 0,0 km/h O 0,2 C 2,5 C 0,0 km/h
17.03.2014 05:00 2,8 C 85 % 993,5 hPa 0,0 l/m 0,0 km/h O-SO 0,5 C 2,8 C 0,0 km/h
17.03.2014 06:00 2,5 C 84 % 993,3 hPa 0,0 l/m 0,0 km/h SO 0,1 C 2,5 C 0,0 km/h
17.03.2014 07:00 3,3 C 83 % 993,6 hPa 0,0 l/m 0,0 km/h SO 0,7 C 3,3 C 0,0 km/h
17.03.2014 08:00 8,6 C 76 % 993,9 hPa 0,0 l/m 3,2 km/h O-SO 4,6 C 8,6 C 1,8 km/h
17.03.2014 09:00 14,8 C 76 % 994,0 hPa 0,0 l/m 0,0 km/h N 10,6 C 14,8 C 0,0 km/h
17.03.2014 10:00 21,6 C 52 % 994,0 hPa 0,0 l/m 0,0 km/h W-SW 11,3 C 21,6 C 0,0 km/h
17.03.2014 11:00 21,3 C 49 % 993,5 hPa 0,0 l/m 12,3 km/h W-NW 10,1 C 19,5 C 6,8 km/h
17.03.2014 12:00 22,1 C 46 % 992,8 hPa 0,0 l/m 0,0 km/h W-NW 9,9 C 22,1 C 0,0 km/h
17.03.2014 13:00 21,5 C 43 % 992,1 hPa 0,0 l/m 3,2 km/h S-SW 8,4 C 21,5 C 1,8 km/h
17.03.2014 14:00 23,8 C 38 % 991,1 hPa 0,0 l/m 0,0 km/h W-SW 8,6 C 23,8 C 0,0 km/h
17.03.2014 15:00 26,0 C 32 % 990,6 hPa 0,0 l/m 10,4 km/h W 8,0 C 25,2 C 5,8 km/h
17.03.2014 16:00 26,9 C 31 % 990,2 hPa 0,0 l/m 9,1 km/h W 8,3 C 26,4 C 5,0 km/h
17.03.2014 17:00 25,8 C 32 % 990,0 hPa 0,0 l/m 2,6 km/h N-NW 7,8 C 25,8 C 1,4 km/h
17.03.2014 18:00 21,0 C 39 % 990,0 hPa 0,0 l/m 0,0 km/h O-SO 6,5 C 21,0 C 0,0 km/h
17.03.2014 19:00 11,4 C 60 % 990,7 hPa 0,0 l/m 0,0 km/h O 3,9 C 11,4 C 0,0 km/h
17.03.2014 20:00 9,3 C 69 % 991,3 hPa 0,0 l/m 0,0 km/h O 3,9 C 9,3 C 0,0 km/h
17.03.2014 21:00 8,1 C 74 % 991,5 hPa 0,0 l/m 0,0 km/h NO 3,8 C 8,1 C 0,0 km/h
17.03.2014 22:00 7,3 C 77 % 991,6 hPa 0,0 l/m 0,0 km/h O-NO 3,5 C 7,3 C 0,0 km/h
17.03.2014 23:00 6,4 C 79 % 991,2 hPa 0,0 l/m 0,0 km/h NO 3,0 C 6,4 C 0,0 km/h
18.03.2014 00:00 5,4 C 80 % 991,2 hPa 0,0 l/m 0,0 km/h NO 2,2 C 5,4 C 0,0 km/h
18.03.2014 01:00 5,4 C 82 % 990,9 hPa 0,0 l/m 1,1 km/h O-SO 2,6 C 5,4 C 1,1 km/h
18.03.2014 02:00 4,9 C 83 % 990,3 hPa 0,0 l/m 0,0 km/h O 2,3 C 4,9 C 0,0 km/h
18.03.2014 03:00 4,3 C 83 % 989,7 hPa 0,0 l/m 0,0 km/h NO 1,7 C 4,3 C 0,0 km/h
18.03.2014 04:00 3,9 C 84 % 989,2 hPa 0,0 l/m 0,0 km/h O 1,4 C 3,9 C 0,0 km/h
18.03.2014 05:00 3,0 C 84 % 989,2 hPa 0,0 l/m 0,0 km/h O-NO 0,6 C 3,0 C 0,0 km/h
18.03.2014 06:00 2,5 C 85 % 988,9 hPa 0,0 l/m 0,0 km/h O 0,2 C 2,5 C 0,0 km/h
18.03.2014 07:00 2,4 C 85 % 989,4 hPa 0,0 l/m 0,0 km/h O-NO 0,1 C 2,4 C 0,0 km/h
18.03.2014 08:00 8,9 C 84 % 989,2 hPa 0,0 l/m 0,0 km/h SO 6,3 C 8,9 C 0,0 km/h
18.03.2014 09:00 13,2 C 71 % 989,2 hPa 0,0 l/m 0,0 km/h N-NW 8,1 C 13,2 C 0,0 km/h
18.03.2014 10:00 19,3 C 52 % 988,9 hPa 0,0 l/m 0,0 km/h W-SW 9,2 C 19,3 C 0,0 km/h
18.03.2014 11:00 22,9 C 44 % 988,4 hPa 0,0 l/m 0,0 km/h W-SW 10,0 C 22,9 C 0,0 km/h
18.03.2014 12:00 21,9 C 44 % 987,7 hPa 0,0 l/m 0,0 km/h W-SW 9,1 C 21,9 C 0,0 km/h
18.03.2014 13:00 21,9 C 40 % 986,9 hPa 0,0 l/m 0,0 km/h W-SW 7,7 C 21,9 C 0,0 km/h
18.03.2014 14:00 23,2 C 37 % 986,1 hPa 0,0 l/m 24,0 km/h W-SW 7,7 C 19,8 C 13,3 km/h
18.03.2014 15:00 21,6 C 38 % 985,7 hPa 0,0 l/m 25,9 km/h W-SW 6,7 C 17,4 C 14,4 km/h
18.03.2014 16:00 23,4 C 35 % 985,5 hPa 0,0 l/m 15,6 km/h NW 7,1 C 21,3 C 8,6 km/h
18.03.2014 17:00 18,9 C 44 % 985,7 hPa 0,0 l/m 0,0 km/h NW 6,4 C 18,9 C 0,0 km/h
18.03.2014 18:00 15,9 C 51 % 986,3 hPa 0,0 l/m 0,0 km/h W 5,8 C 15,9 C 0,0 km/h
18.03.2014 19:00 13,8 C 60 % 986,7 hPa 0,0 l/m 0,0 km/h NW 6,2 C 13,8 C 0,0 km/h
18.03.2014 20:00 12,6 C 65 % 988,4 hPa 0,0 l/m 0,0 km/h W 6,2 C 12,6 C 0,0 km/h
18.03.2014 21:00 10,6 C 68 % 989,5 hPa 0,0 l/m 0,0 km/h N-NW 4,9 C 10,6 C 0,0 km/h
18.03.2014 22:00 11,0 C 66 % 991,3 hPa 0,0 l/m 1,1 km/h W 4,9 C 11,0 C 1,1 km/h
18.03.2014 23:00 9,3 C 69 % 992,6 hPa 0,0 l/m 6,1 km/h W 3,9 C 9,3 C 6,1 km/h
19.03.2014 00:00 10,2 C 68 % 992,8 hPa 0,0 l/m 0,0 km/h W 4,6 C 10,2 C 0,0 km/h
19.03.2014 01:00 10,8 C 65 % 993,6 hPa 0,0 l/m 0,0 km/h NW 4,5 C 10,8 C 0,0 km/h
19.03.2014 02:00 10,1 C 63 % 994,6 hPa 0,0 l/m 3,6 km/h W 3,4 C 10,1 C 3,6 km/h
19.03.2014 03:00 10,1 C 62 % 994,8 hPa 0,0 l/m 1,4 km/h W 3,2 C 10,1 C 1,4 km/h
19.03.2014 04:00 9,9 C 61 % 995,2 hPa 0,0 l/m 4,0 km/h W-SW 2,7 C 9,9 C 4,0 km/h
19.03.2014 05:00 9,4 C 67 % 995,8 hPa 0,0 l/m 1,3 km/h W-NW 3,6 C 9,4 C 0,7 km/h
19.03.2014 06:00 8,9 C 74 % 996,3 hPa 0,0 l/m 23,3 km/h SW 4,5 C 0,8 C 13,0 km/h
19.03.2014 07:00 8,9 C 75 % 996,6 hPa 0,0 l/m 1,9 km/h W 4,7 C 8,9 C 1,1 km/h
19.03.2014 08:00 10,0 C 74 % 997,7 hPa 0,0 l/m 13,0 km/h W 5,6 C 6,0 C 7,2 km/h
19.03.2014 09:00 11,1 C 72 % 998,3 hPa 0,0 l/m 10,4 km/h W 6,2 C 8,6 C 5,8 km/h
19.03.2014 10:00 14,1 C 63 % 998,5 hPa 0,0 l/m 8,4 km/h W 7,2 C 12,9 C 4,7 km/h
19.03.2014 11:00 14,8 C 58 % 998,2 hPa 0,0 l/m 14,9 km/h NW 6,6 C 11,0 C 8,3 km/h
19.03.2014 12:00 16,9 C 54 % 998,3 hPa 0,0 l/m 4,5 km/h W-SW 7,5 C 16,9 C 2,5 km/h
19.03.2014 13:00 15,6 C 52 % 998,0 hPa 0,0 l/m 10,4 km/h S-SW 5,8 C 13,6 C 5,8 km/h
19.03.2014 14:00 19,1 C 46 % 997,4 hPa 0,0 l/m 1,3 km/h S-SW 7,2 C 19,1 C 0,7 km/h
19.03.2014 15:00 21,6 C 39 % 997,2 hPa 0,0 l/m 4,5 km/h S-SO 7,0 C 21,6 C 2,5 km/h
19.03.2014 16:00 24,1 C 34 % 997,3 hPa 0,0 l/m 2,6 km/h O 7,2 C 24,1 C 1,4 km/h
19.03.2014 17:00 23,0 C 34 % 997,0 hPa 0,0 l/m 0,0 km/h O-SO 6,3 C 23,0 C 0,0 km/h
19.03.2014 18:00 14,2 C 46 % 997,4 hPa 0,0 l/m 0,0 km/h O-SO 2,8 C 14,2 C 0,0 km/h
19.03.2014 19:00 9,4 C 63 % 997,4 hPa 0,0 l/m 0,0 km/h N-NO 2,7 C 9,4 C 0,0 km/h
19.03.2014 20:00 7,5 C 71 % 997,6 hPa 0,0 l/m 3,2 km/h O-NO 2,6 C 7,5 C 1,8 km/h
19.03.2014 21:00 6,9 C 75 % 997,6 hPa 0,0 l/m 0,0 km/h O-SO 2,8 C 6,9 C 0,0 km/h
19.03.2014 22:00 6,3 C 78 % 997,5 hPa 0,0 l/m 2,2 km/h SO 2,8 C 6,3 C 2,2 km/h
19.03.2014 23:00 5,6 C 80 % 996,7 hPa 0,0 l/m 1,4 km/h O-SO 2,4 C 5,6 C 1,4 km/h
20.03.2014 00:00 5,8 C 80 % 995,9 hPa 0,0 l/m 1,1 km/h O-SO 2,6 C 5,8 C 1,1 km/h
20.03.2014 01:00 5,3 C 80 % 995,1 hPa 0,0 l/m 11,2 km/h O-SO 2,1 C 1,6 C 11,2 km/h
20.03.2014 02:00 5,4 C 80 % 994,5 hPa 0,0 l/m 0,0 km/h N-NO 2,2 C 5,4 C 0,0 km/h
20.03.2014 03:00 3,9 C 81 % 993,7 hPa 0,0 l/m 0,0 km/h O-SO 0,9 C 3,9 C 0,0 km/h
20.03.2014 04:00 2,2 C 83 % 993,5 hPa 0,0 l/m 0,0 km/h NO -0,4 C 2,2 C 0,0 km/h
20.03.2014 05:00 1,4 C 84 % 993,0 hPa 0,0 l/m 0,0 km/h O-NO -1,0 C 1,4 C 0,0 km/h
20.03.2014 06:00 0,6 C 85 % 992,8 hPa 0,0 l/m 0,0 km/h O-SO -1,6 C 0,6 C 0,0 km/h
20.03.2014 07:00 0,9 C 85 % 992,8 hPa 0,0 l/m 0,0 km/h O-NO -1,3 C 0,9 C 0,0 km/h
20.03.2014 08:00 9,3 C 83 % 992,6 hPa 0,0 l/m 0,0 km/h N 6,6 C 9,3 C 0,0 km/h
20.03.2014 09:00 14,1 C 60 % 991,8 hPa 0,0 l/m 0,0 km/h W-NW 6,5 C 14,1 C 0,0 km/h
20.03.2014 10:00 19,3 C 48 % 991,3 hPa 0,0 l/m 0,0 km/h W-NW 8,0 C 19,3 C 0,0 km/h
20.03.2014 11:00 21,3 C 43 % 990,6 hPa 0,0 l/m 0,0 km/h S-SW 8,2 C 21,3 C 0,0 km/h
20.03.2014 12:00 22,3 C 41 % 989,9 hPa 0,0 l/m 0,0 km/h W-SW 8,4 C 22,3 C 0,0 km/h
20.03.2014 13:00 22,5 C 39 % 989,2 hPa 0,0 l/m 6,5 km/h S-SW 7,8 C 22,5 C 3,6 km/h
20.03.2014 14:00 25,2 C 33 % 988,2 hPa 0,0 l/m 1,9 km/h W-SW 7,8 C 25,2 C 1,1 km/h
20.03.2014 15:00 26,6 C 31 % 987,6 hPa 0,0 l/m 17,5 km/h W-SW 8,1 C 25,0 C 9,7 km/h
20.03.2014 16:00 27,2 C 28 % 986,6 hPa 0,0 l/m 10,4 km/h S-SW 7,1 C 26,5 C 5,8 km/h
20.03.2014 17:00 26,6 C 28 % 986,2 hPa 0,0 l/m 12,3 km/h S 6,6 C 25,6 C 6,8 km/h
20.03.2014 18:00 19,6 C 36 % 986,3 hPa 0,0 l/m 0,0 km/h S-SO 4,1 C 19,6 C 0,0 km/h
20.03.2014 19:00 14,2 C 48 % 986,5 hPa 0,0 l/m 0,0 km/h O-SO 3,4 C 14,2 C 0,0 km/h
20.03.2014 20:00 11,9 C 58 % 986,8 hPa 0,0 l/m 0,0 km/h O-SO 3,9 C 11,9 C 0,0 km/h
20.03.2014 21:00 11,5 C 62 % 986,3 hPa 0,0 l/m 4,0 km/h O-NO 4,5 C 11,5 C 4,0 km/h
20.03.2014 22:00 10,2 C 65 % 986,5 hPa 0,0 l/m 0,7 km/h O-SO 3,9 C 10,2 C 0,7 km/h
20.03.2014 23:00 9,1 C 69 % 986,5 hPa 0,0 l/m 0,0 km/h SO 3,7 C 9,1 C 0,0 km/h
21.03.2014 00:00 8,3 C 72 % 986,5 hPa 0,0 l/m 2,9 km/h SO 3,6 C 8,3 C 2,9 km/h
21.03.2014 01:00 15,2 C 59 % 986,5 hPa 0,0 l/m 10,4 km/h SW 7,2 C 13,2 C 10,4 km/h
21.03.2014 02:00 14,9 C 60 % 986,1 hPa 0,0 l/m 7,6 km/h S-SW 7,2 C 14,2 C 7,6 km/h
21.03.2014 03:00 14,4 C 61 % 985,9 hPa 0,0 l/m 5,8 km/h W-SW 7,0 C 14,4 C 5,8 km/h
21.03.2014 04:00 13,5 C 62 % 986,0 hPa 0,0 l/m 13,3 km/h S-SW 6,4 C 10,0 C 13,3 km/h
21.03.2014 05:00 12,6 C 64 % 985,5 hPa 0,0 l/m 5,8 km/h W-SW 6,0 C 12,6 C 3,2 km/h
21.03.2014 06:00 12,2 C 67 % 985,3 hPa 0,0 l/m 1,9 km/h S 6,3 C 12,2 C 1,1 km/h
21.03.2014 07:00 12,3 C 69 % 985,6 hPa 0,0 l/m 7,8 km/h W 6,8 C 11,4 C 4,3 km/h
21.03.2014 08:00 16,2 C 61 % 985,4 hPa 0,0 l/m 13,6 km/h S-SW 8,7 C 13,1 C 7,6 km/h
21.03.2014 09:00 17,9 C 57 % 985,7 hPa 0,0 l/m 16,8 km/h W 9,3 C 14,2 C 9,4 km/h
21.03.2014 10:00 20,9 C 44 % 985,3 hPa 0,0 l/m 40,2 km/h SW 8,2 C 15,0 C 22,3 km/h
21.03.2014 11:00 21,5 C 39 % 984,7 hPa 0,0 l/m 36,3 km/h W 7,0 C 16,2 C 20,2 km/h
21.03.2014 12:00 20,5 C 41 % 984,4 hPa 0,0 l/m 33,7 km/h W 6,8 C 15,0 C 18,7 km/h
21.03.2014 13:00 21,1 C 40 % 983,8 hPa 0,0 l/m 24,0 km/h W 7,0 C 17,0 C 13,3 km/h
21.03.2014 14:00 19,6 C 40 % 983,5 hPa 0,0 l/m 24,0 km/h W 5,6 C 15,0 C 13,3 km/h
21.03.2014 15:00 18,8 C 46 % 983,5 hPa 0,0 l/m 8,6 km/h W 6,9 C 17,8 C 8,6 km/h
21.03.2014 16:00 18,2 C 42 % 983,3 hPa 0,0 l/m 5,8 km/h W 5,1 C 18,2 C 5,8 km/h
21.03.2014 17:00 17,1 C 46 % 983,1 hPa 0,0 l/m 0,0 km/h W-NW 5,4 C 17,1 C 0,0 km/h
21.03.2014 18:00 14,9 C 55 % 983,2 hPa 0,0 l/m 0,0 km/h SW 5,9 C 14,9 C 0,0 km/h
21.03.2014 19:00 14,6 C 56 % 983,1 hPa 0,0 l/m 0,7 km/h S 5,9 C 14,6 C 0,7 km/h
21.03.2014 20:00 14,8 C 57 % 983,1 hPa 0,0 l/m 0,0 km/h S 6,4 C 14,8 C 0,0 km/h
21.03.2014 21:00 14,6 C 58 % 983,0 hPa 0,0 l/m 2,5 km/h W-SW 6,4 C 14,6 C 2,5 km/h
21.03.2014 22:00 14,3 C 61 % 982,9 hPa 0,0 l/m 0,7 km/h W-SW 6,9 C 14,3 C 0,7 km/h
21.03.2014 23:00 14,1 C 61 % 982,8 hPa 0,0 l/m 7,6 km/h S 6,7 C 13,4 C 7,6 km/h
22.03.2014 00:00 13,5 C 66 % 982,4 hPa 0,0 l/m 0,0 km/h S 7,3 C 13,5 C 0,0 km/h
22.03.2014 01:00 13,3 C 66 % 981,8 hPa 0,0 l/m 11,5 km/h S 7,1 C 10,5 C 11,5 km/h
22.03.2014 02:00 12,3 C 71 % 981,2 hPa 0,0 l/m 2,5 km/h S-SW 7,2 C 12,3 C 2,5 km/h
22.03.2014 03:00 11,4 C 74 % 980,0 hPa 0,0 l/m 0,0 km/h O-NO 6,9 C 11,4 C 0,0 km/h
22.03.2014 04:00 9,5 C 78 % 978,4 hPa 0,0 l/m 0,0 km/h N-NO 5,9 C 9,5 C 0,0 km/h
22.03.2014 05:00 9,2 C 79 % 978,2 hPa 0,0 l/m 0,0 km/h N 5,8 C 9,2 C 0,0 km/h
22.03.2014 06:00 9,0 C 82 % 978,4 hPa 0,0 l/m 0,0 km/h W 6,1 C 9,0 C 0,0 km/h
22.03.2014 07:00 9,2 C 82 % 979,5 hPa 0,0 l/m 0,0 km/h W-SW 6,3 C 9,2 C 0,0 km/h
22.03.2014 08:00 9,1 C 84 % 979,6 hPa 0,6 l/m 25,3 km/h SW 6,5 C 0,5 C 14,0 km/h
22.03.2014 09:00 9,2 C 83 % 979,7 hPa 0,3 l/m 25,3 km/h SW 6,5 C 0,7 C 14,0 km/h
22.03.2014 10:00 9,5 C 84 % 979,9 hPa 0,2 l/m 16,2 km/h SW 6,9 C 4,0 C 9,0 km/h
22.03.2014 11:00 9,8 C 83 % 979,8 hPa 0,0 l/m 21,4 km/h S-SO 7,1 C 2,6 C 11,9 km/h
22.03.2014 12:00 10,8 C 80 % 979,0 hPa 0,0 l/m 5,8 km/h S 7,5 C 10,8 C 3,2 km/h
22.03.2014 13:00 10,4 C 80 % 978,3 hPa 0,0 l/m 0,0 km/h S-SW 7,1 C 10,4 C 0,0 km/h
22.03.2014 14:00 10,7 C 79 % 977,8 hPa 0,0 l/m 24,6 km/h S-SW 7,2 C 2,9 C 13,7 km/h
22.03.2014 15:00 9,5 C 82 % 977,4 hPa 0,0 l/m 4,5 km/h S-SW 6,6 C 9,5 C 2,5 km/h
22.03.2014 16:00 10,4 C 76 % 976,8 hPa 0,0 l/m 7,8 km/h W-SW 6,4 C 9,4 C 4,3 km/h
22.03.2014 17:00 10,2 C 72 % 977,0 hPa 0,0 l/m 20,1 km/h S 5,4 C 3,5 C 11,2 km/h
22.03.2014 18:00 11,6 C 67 % 976,9 hPa 0,0 l/m 0,0 km/h W 5,7 C 11,6 C 0,0 km/h
22.03.2014 19:00 8,2 C 75 % 978,2 hPa 0,0 l/m 2,6 km/h SO 4,0 C 8,2 C 1,4 km/h
22.03.2014 20:00 6,5 C 83 % 978,6 hPa 0,2 l/m 0,0 km/h W 3,8 C 6,5 C 0,0 km/h
22.03.2014 21:00 6,5 C 84 % 979,2 hPa 0,0 l/m 4,7 km/h W-SW 4,0 C 6,5 C 4,7 km/h
22.03.2014 22:00 6,3 C 82 % 979,1 hPa 0,0 l/m 0,7 km/h W-SW 3,5 C 6,3 C 0,7 km/h
22.03.2014 23:00 5,8 C 82 % 979,1 hPa 0,0 l/m 0,0 km/h W 3,0 C 5,8 C 0,0 km/h
23.03.2014 00:00 5,2 C 83 % 978,7 hPa 0,0 l/m 0,0 km/h SW 2,6 C 5,2 C 0,0 km/h
23.03.2014 01:00 5,4 C 84 % 978,5 hPa 0,0 l/m 0,0 km/h W-SW 2,9 C 5,4 C 0,0 km/h
23.03.2014 02:00 6,4 C 82 % 978,7 hPa 0,0 l/m 1,8 km/h W-SW 3,6 C 6,4 C 1,8 km/h
23.03.2014 03:00 6,1 C 82 % 978,2 hPa 0,0 l/m 1,4 km/h SW 3,3 C 6,1 C 1,4 km/h
23.03.2014 04:00 5,9 C 82 % 978,4 hPa 0,0 l/m 0,0 km/h W-SW 3,1 C 5,9 C 0,0 km/h
23.03.2014 05:00 5,3 C 82 % 978,0 hPa 0,0 l/m 0,0 km/h W 2,5 C 5,3 C 0,0 km/h
23.03.2014 06:00 4,6 C 83 % 978,2 hPa 0,0 l/m 0,0 km/h W-NW 2,0 C 4,6 C 0,0 km/h
23.03.2014 07:00 4,4 C 84 % 978,3 hPa 0,0 l/m 0,0 km/h N-NO 1,9 C 4,4 C 0,0 km/h
23.03.2014 08:00 5,4 C 84 % 978,7 hPa 0,0 l/m 0,0 km/h W 2,9 C 5,4 C 0,0 km/h
23.03.2014 09:00 7,6 C 82 % 978,7 hPa 0,0 l/m 0,0 km/h W 4,7 C 7,6 C 0,0 km/h
23.03.2014 10:00 8,5 C 78 % 978,8 hPa 0,0 l/m 0,0 km/h NW 4,9 C 8,5 C 0,0 km/h
23.03.2014 11:00 9,2 C 72 % 979,0 hPa 0,0 l/m 0,0 km/h N 4,4 C 9,2 C 0,0 km/h
23.03.2014 12:00 9,8 C 67 % 978,7 hPa 0,0 l/m 0,0 km/h SO 4,0 C 9,8 C 0,0 km/h
23.03.2014 13:00 4,8 C 81 % 978,8 hPa 0,6 l/m 20,1 km/h S-SO 1,8 C -3,5 C 11,2 km/h
23.03.2014 14:00 8,5 C 75 % 978,8 hPa 0,0 l/m 6,5 km/h S-SO 4,3 C 8,4 C 3,6 km/h
23.03.2014 15:00 9,4 C 68 % 978,7 hPa 0,0 l/m 0,6 km/h SW 3,8 C 9,4 C 0,4 km/h
23.03.2014 16:00 10,3 C 69 % 978,8 hPa 0,0 l/m 5,8 km/h SW 4,9 C 10,3 C 3,2 km/h
23.03.2014 17:00 9,3 C 64 % 979,0 hPa 0,0 l/m 0,0 km/h W 2,8 C 9,3 C 0,0 km/h
23.03.2014 18:00 6,1 C 77 % 979,6 hPa 0,0 l/m 2,6 km/h SO 2,4 C 6,1 C 1,4 km/h
23.03.2014 19:00 4,8 C 79 % 979,5 hPa 0,0 l/m 0,0 km/h O-SO 1,5 C 4,8 C 0,0 km/h
23.03.2014 20:00 3,1 C 83 % 980,4 hPa 0,0 l/m 0,0 km/h O-SO 0,5 C 3,1 C 0,0 km/h
23.03.2014 21:00 2,9 C 84 % 980,8 hPa 0,0 l/m 0,0 km/h O-SO 0,5 C 2,9 C 0,0 km/h
23.03.2014 22:00 3,2 C 84 % 981,1 hPa 0,0 l/m 0,0 km/h O-SO 0,8 C 3,2 C 0,0 km/h
23.03.2014 23:00 3,2 C 84 % 981,4 hPa 0,0 l/m 0,0 km/h O-SO 0,8 C 3,2 C 0,0 km/h
Min-Datum _ 20.03.14 20.03.14 22.03.14 - 17.03.14 - 20.03.14 23.03.14 17.03.14
_ Min-Zeit 06:19 16:19 16:19 - 00:19 - 06:19 13:19 00:19
Minimum _ 0,6 C 28 % 976,8 hPa - 0,0 km/h - -1,6 C -3,5 C 0,0 km/h
Max-Datum _ 20.03.14 17.03.14 19.03.14 22.03.14 21.03.14 - 17.03.14 20.03.14 21.03.14
_ Max-Zeit 16:19 01:19 10:19 08:19 10:19 - 10:19 16:19 10:19
Maximum _ 27,2 C 85 % 998,5 hPa 0,6 l/m 40,2 km/h
SW
- 11,3 C 26,5 C 22,3 km/h
SW
Durchschnitt _ 11,8 C 66 % 987,2 hPa #1,9 l/m 4,6 km/h W 4,9 C 11,0 C 2,9 km/h
www.sexauwetter.de